WEATHER/FLIGHT PLANNING

Hattiesburg Radar

 

 

 

 

Weather Links

Flight Planning Links

 

METAR

2015/07/30 09:53 KHBG 300953Z AUTO 31003KT 10SM FEW050 25/23 A2999 RMK AO2 SLP152 T02500233

TAF

2015/07/30 06:36 TAF KHBG 300535Z 3006/3106 00000KT P6SM SCT200 FM301400 02006KT P6SM SCT040 FM301800 03007G20KT P6SM VCTS SCT040 BKN060CB FM302200 01006KT P6SM BKN200